sensor_id;sensor_type;location;lat;lon;timestamp;P1;durP1;ratioP1;P2;durP2;ratioP2
15142;SDS011;7672;50.834;6.286;2023-04-21T00:01:38;17.93;;;12.10;;
15142;SDS011;7672;50.834;6.286;2023-04-21T00:04:05;14.73;;;12.07;;
15142;SDS011;7672;50.834;6.286;2023-04-21T00:06:32;16.57;;;13.17;;
15142;SDS011;7672;50.834;6.286;2023-04-21T00:08:59;16.90;;;14.23;;
15142;SDS011;7672;50.834;6.286;2023-04-21T00:11:26;17.40;;;12.00;;
15142;SDS011;7672;50.834;6.286;2023-04-21T00:13:52;17.80;;;13.17;;
15142;SDS011;7672;50.834;6.286;2023-04-21T00:16:20;16.47;;;12.73;;
15142;SDS011;7672;50.834;6.286;2023-04-21T00:18:47;14.97;;;12.17;;
15142;SDS011;7672;50.834;6.286;2023-04-21T00:21:14;17.37;;;13.47;;
15142;SDS011;7672;50.834;6.286;2023-04-21T00:23:41;25.37;;;14.73;;
15142;SDS011;7672;50.834;6.286;2023-04-21T00:26:08;18.53;;;13.67;;
15142;SDS011;7672;50.834;6.286;2023-04-21T00:28:35;22.13;;;15.03;;
15142;SDS011;7672;50.834;6.286;2023-04-21T00:31:02;17.60;;;14.53;;
15142;SDS011;7672;50.834;6.286;2023-04-21T00:33:29;21.43;;;15.27;;
15142;SDS011;7672;50.834;6.286;2023-04-21T00:35:55;16.33;;;13.47;;
15142;SDS011;7672;50.834;6.286;2023-04-21T00:38:24;16.30;;;12.97;;
15142;SDS011;7672;50.834;6.286;2023-04-21T00:40:51;15.93;;;12.83;;
15142;SDS011;7672;50.834;6.286;2023-04-21T00:43:17;19.17;;;15.03;;
15142;SDS011;7672;50.834;6.286;2023-04-21T00:45:44;17.80;;;14.87;;
15142;SDS011;7672;50.834;6.286;2023-04-21T00:48:13;19.70;;;15.33;;
15142;SDS011;7672;50.834;6.286;2023-04-21T00:50:40;18.97;;;15.50;;
15142;SDS011;7672;50.834;6.286;2023-04-21T00:53:10;20.83;;;15.30;;
15142;SDS011;7672;50.834;6.286;2023-04-21T00:55:38;21.07;;;16.00;;
15142;SDS011;7672;50.834;6.286;2023-04-21T00:58:04;19.80;;;14.07;;
15142;SDS011;7672;50.834;6.286;2023-04-21T01:00:32;20.90;;;14.43;;
15142;SDS011;7672;50.834;6.286;2023-04-21T01:02:59;21.60;;;15.37;;
15142;SDS011;7672;50.834;6.286;2023-04-21T01:05:27;20.47;;;16.13;;
15142;SDS011;7672;50.834;6.286;2023-04-21T01:07:54;18.97;;;15.20;;
15142;SDS011;7672;50.834;6.286;2023-04-21T01:10:20;20.93;;;17.00;;
15142;SDS011;7672;50.834;6.286;2023-04-21T01:12:47;20.67;;;15.07;;
15142;SDS011;7672;50.834;6.286;2023-04-21T01:15:15;21.13;;;15.33;;
15142;SDS011;7672;50.834;6.286;2023-04-21T01:17:43;22.17;;;17.30;;
15142;SDS011;7672;50.834;6.286;2023-04-21T01:20:11;19.17;;;14.80;;
15142;SDS011;7672;50.834;6.286;2023-04-21T01:22:40;21.17;;;14.87;;
15142;SDS011;7672;50.834;6.286;2023-04-21T01:25:08;24.17;;;16.77;;
15142;SDS011;7672;50.834;6.286;2023-04-21T01:27:35;22.87;;;15.47;;
15142;SDS011;7672;50.834;6.286;2023-04-21T01:30:02;21.53;;;16.53;;
15142;SDS011;7672;50.834;6.286;2023-04-21T01:32:31;24.93;;;16.57;;
15142;SDS011;7672;50.834;6.286;2023-04-21T01:34:58;22.13;;;16.17;;
15142;SDS011;7672;50.834;6.286;2023-04-21T01:37:26;24.00;;;17.10;;
15142;SDS011;7672;50.834;6.286;2023-04-21T01:39:58;19.60;;;15.53;;
15142;SDS011;7672;50.834;6.286;2023-04-21T01:42:30;21.73;;;17.10;;
15142;SDS011;7672;50.834;6.286;2023-04-21T01:44:58;20.53;;;15.77;;
15142;SDS011;7672;50.834;6.286;2023-04-21T01:47:25;22.67;;;17.90;;
15142;SDS011;7672;50.834;6.286;2023-04-21T01:49:52;23.90;;;17.43;;
15142;SDS011;7672;50.834;6.286;2023-04-21T01:52:20;21.70;;;18.53;;
15142;SDS011;7672;50.834;6.286;2023-04-21T01:54:47;22.93;;;16.83;;
15142;SDS011;7672;50.834;6.286;2023-04-21T01:57:14;23.63;;;16.97;;
15142;SDS011;7672;50.834;6.286;2023-04-21T01:59:42;23.17;;;16.33;;
15142;SDS011;7672;50.834;6.286;2023-04-21T02:02:09;22.50;;;16.73;;
15142;SDS011;7672;50.834;6.286;2023-04-21T02:04:36;22.17;;;17.77;;
15142;SDS011;7672;50.834;6.286;2023-04-21T02:07:03;25.63;;;19.37;;
15142;SDS011;7672;50.834;6.286;2023-04-21T02:09:30;25.83;;;19.47;;
15142;SDS011;7672;50.834;6.286;2023-04-21T02:11:57;26.13;;;18.93;;
15142;SDS011;7672;50.834;6.286;2023-04-21T02:14:24;25.07;;;18.13;;
15142;SDS011;7672;50.834;6.286;2023-04-21T02:16:51;23.60;;;17.53;;
15142;SDS011;7672;50.834;6.286;2023-04-21T02:19:18;23.30;;;18.17;;
15142;SDS011;7672;50.834;6.286;2023-04-21T02:21:45;23.03;;;17.37;;
15142;SDS011;7672;50.834;6.286;2023-04-21T02:24:12;25.07;;;18.13;;
15142;SDS011;7672;50.834;6.286;2023-04-21T02:26:39;24.37;;;18.67;;
15142;SDS011;7672;50.834;6.286;2023-04-21T02:29:08;22.93;;;17.57;;
15142;SDS011;7672;50.834;6.286;2023-04-21T02:31:35;27.00;;;19.33;;
15142;SDS011;7672;50.834;6.286;2023-04-21T02:34:22;25.80;;;18.53;;
15142;SDS011;7672;50.834;6.286;2023-04-21T02:36:49;25.80;;;19.00;;
15142;SDS011;7672;50.834;6.286;2023-04-21T02:39:18;24.80;;;18.70;;
15142;SDS011;7672;50.834;6.286;2023-04-21T02:41:52;25.00;;;19.53;;
15142;SDS011;7672;50.834;6.286;2023-04-21T02:44:21;25.80;;;18.00;;
15142;SDS011;7672;50.834;6.286;2023-04-21T02:46:48;24.27;;;19.47;;
15142;SDS011;7672;50.834;6.286;2023-04-21T02:49:14;25.77;;;18.13;;
15142;SDS011;7672;50.834;6.286;2023-04-21T02:51:42;27.20;;;20.00;;
15142;SDS011;7672;50.834;6.286;2023-04-21T02:54:09;25.33;;;20.00;;
15142;SDS011;7672;50.834;6.286;2023-04-21T02:56:36;26.13;;;19.43;;
15142;SDS011;7672;50.834;6.286;2023-04-21T02:59:03;27.20;;;19.53;;
15142;SDS011;7672;50.834;6.286;2023-04-21T03:01:30;30.07;;;21.60;;
15142;SDS011;7672;50.834;6.286;2023-04-21T03:03:56;29.30;;;20.47;;
15142;SDS011;7672;50.834;6.286;2023-04-21T03:06:23;25.20;;;18.77;;
15142;SDS011;7672;50.834;6.286;2023-04-21T03:08:50;27.57;;;19.73;;
15142;SDS011;7672;50.834;6.286;2023-04-21T03:11:18;29.50;;;20.87;;
15142;SDS011;7672;50.834;6.286;2023-04-21T03:13:59;28.67;;;20.23;;
15142;SDS011;7672;50.834;6.286;2023-04-21T03:16:41;29.63;;;20.80;;
15142;SDS011;7672;50.834;6.286;2023-04-21T03:19:19;28.37;;;20.07;;
15142;SDS011;7672;50.834;6.286;2023-04-21T03:21:57;26.53;;;19.60;;
15142;SDS011;7672;50.834;6.286;2023-04-21T03:24:25;26.77;;;19.10;;
15142;SDS011;7672;50.834;6.286;2023-04-21T03:27:05;28.27;;;20.37;;
15142;SDS011;7672;50.834;6.286;2023-04-21T03:34:10;28.07;;;19.80;;
15142;SDS011;7672;50.834;6.286;2023-04-21T03:37:03;28.50;;;20.93;;
15142;SDS011;7672;50.834;6.286;2023-04-21T03:39:30;30.60;;;22.57;;
15142;SDS011;7672;50.834;6.286;2023-04-21T03:41:57;30.17;;;22.13;;
15142;SDS011;7672;50.834;6.286;2023-04-21T03:44:24;29.00;;;21.63;;
15142;SDS011;7672;50.834;6.286;2023-04-21T03:46:52;28.47;;;20.57;;
15142;SDS011;7672;50.834;6.286;2023-04-21T03:49:20;29.83;;;21.83;;
15142;SDS011;7672;50.834;6.286;2023-04-21T03:51:47;27.97;;;21.23;;
15142;SDS011;7672;50.834;6.286;2023-04-21T03:54:14;28.53;;;19.47;;
15142;SDS011;7672;50.834;6.286;2023-04-21T03:56:41;28.47;;;20.83;;
15142;SDS011;7672;50.834;6.286;2023-04-21T03:59:08;27.40;;;20.23;;
15142;SDS011;7672;50.834;6.286;2023-04-21T04:01:35;27.03;;;20.47;;
15142;SDS011;7672;50.834;6.286;2023-04-21T04:04:02;26.80;;;19.53;;
15142;SDS011;7672;50.834;6.286;2023-04-21T04:06:29;26.97;;;19.60;;
15142;SDS011;7672;50.834;6.286;2023-04-21T04:08:57;24.50;;;18.27;;
15142;SDS011;7672;50.834;6.286;2023-04-21T04:11:24;26.50;;;19.67;;
15142;SDS011;7672;50.834;6.286;2023-04-21T04:13:50;28.27;;;20.27;;
15142;SDS011;7672;50.834;6.286;2023-04-21T04:16:18;28.77;;;21.20;;
15142;SDS011;7672;50.834;6.286;2023-04-21T04:18:45;26.07;;;20.10;;
15142;SDS011;7672;50.834;6.286;2023-04-21T04:21:11;25.87;;;20.07;;
15142;SDS011;7672;50.834;6.286;2023-04-21T04:23:38;31.40;;;21.47;;
15142;SDS011;7672;50.834;6.286;2023-04-21T04:26:05;28.43;;;21.00;;
15142;SDS011;7672;50.834;6.286;2023-04-21T04:28:32;30.00;;;21.77;;
15142;SDS011;7672;50.834;6.286;2023-04-21T04:31:00;32.37;;;20.73;;
15142;SDS011;7672;50.834;6.286;2023-04-21T04:33:28;28.73;;;21.13;;
15142;SDS011;7672;50.834;6.286;2023-04-21T04:35:55;28.83;;;20.77;;
15142;SDS011;7672;50.834;6.286;2023-04-21T04:38:23;30.13;;;22.00;;
15142;SDS011;7672;50.834;6.286;2023-04-21T04:40:55;29.63;;;20.33;;
15142;SDS011;7672;50.834;6.286;2023-04-21T04:43:24;29.63;;;19.80;;
15142;SDS011;7672;50.834;6.286;2023-04-21T04:45:50;32.43;;;21.70;;
15142;SDS011;7672;50.834;6.286;2023-04-21T04:48:17;30.33;;;20.60;;
15142;SDS011;7672;50.834;6.286;2023-04-21T04:50:44;30.50;;;20.27;;
15142;SDS011;7672;50.834;6.286;2023-04-21T04:53:11;28.43;;;20.03;;
15142;SDS011;7672;50.834;6.286;2023-04-21T04:55:38;27.43;;;19.47;;
15142;SDS011;7672;50.834;6.286;2023-04-21T04:58:05;32.00;;;21.77;;
15142;SDS011;7672;50.834;6.286;2023-04-21T05:00:32;28.73;;;20.90;;
15142;SDS011;7672;50.834;6.286;2023-04-21T05:02:59;29.57;;;21.13;;
15142;SDS011;7672;50.834;6.286;2023-04-21T05:05:26;29.80;;;20.67;;
15142;SDS011;7672;50.834;6.286;2023-04-21T05:07:53;30.07;;;20.87;;
15142;SDS011;7672;50.834;6.286;2023-04-21T05:10:20;29.80;;;21.30;;
15142;SDS011;7672;50.834;6.286;2023-04-21T05:12:47;31.23;;;20.70;;
15142;SDS011;7672;50.834;6.286;2023-04-21T05:15:15;26.87;;;18.97;;
15142;SDS011;7672;50.834;6.286;2023-04-21T05:17:43;26.63;;;19.50;;
15142;SDS011;7672;50.834;6.286;2023-04-21T05:20:10;27.27;;;19.20;;
15142;SDS011;7672;50.834;6.286;2023-04-21T05:22:37;27.67;;;18.57;;
15142;SDS011;7672;50.834;6.286;2023-04-21T05:25:05;28.57;;;19.87;;
15142;SDS011;7672;50.834;6.286;2023-04-21T05:27:33;30.13;;;21.07;;
15142;SDS011;7672;50.834;6.286;2023-04-21T05:30:00;24.47;;;17.03;;
15142;SDS011;7672;50.834;6.286;2023-04-21T05:32:27;28.07;;;18.77;;
15142;SDS011;7672;50.834;6.286;2023-04-21T05:34:54;26.80;;;18.87;;
15142;SDS011;7672;50.834;6.286;2023-04-21T05:37:21;25.13;;;19.03;;
15142;SDS011;7672;50.834;6.286;2023-04-21T05:39:48;26.43;;;19.97;;
15142;SDS011;7672;50.834;6.286;2023-04-21T05:42:15;26.80;;;19.17;;
15142;SDS011;7672;50.834;6.286;2023-04-21T05:44:43;25.87;;;18.63;;
15142;SDS011;7672;50.834;6.286;2023-04-21T05:47:10;28.90;;;20.00;;
15142;SDS011;7672;50.834;6.286;2023-04-21T05:49:36;28.00;;;19.70;;
15142;SDS011;7672;50.834;6.286;2023-04-21T05:52:03;27.57;;;18.80;;
15142;SDS011;7672;50.834;6.286;2023-04-21T05:54:31;30.17;;;20.97;;
15142;SDS011;7672;50.834;6.286;2023-04-21T05:56:58;26.60;;;18.30;;
15142;SDS011;7672;50.834;6.286;2023-04-21T05:59:26;23.63;;;19.20;;
15142;SDS011;7672;50.834;6.286;2023-04-21T06:01:53;23.63;;;16.97;;
15142;SDS011;7672;50.834;6.286;2023-04-21T06:04:19;23.60;;;18.43;;
15142;SDS011;7672;50.834;6.286;2023-04-21T06:06:47;27.13;;;19.73;;
15142;SDS011;7672;50.834;6.286;2023-04-21T06:09:14;27.47;;;20.40;;
15142;SDS011;7672;50.834;6.286;2023-04-21T06:11:40;27.67;;;20.07;;
15142;SDS011;7672;50.834;6.286;2023-04-21T06:14:07;28.10;;;20.53;;
15142;SDS011;7672;50.834;6.286;2023-04-21T06:16:34;30.37;;;20.93;;
15142;SDS011;7672;50.834;6.286;2023-04-21T06:19:01;30.43;;;21.77;;
15142;SDS011;7672;50.834;6.286;2023-04-21T06:21:28;26.87;;;20.57;;
15142;SDS011;7672;50.834;6.286;2023-04-21T06:23:54;27.10;;;20.43;;
15142;SDS011;7672;50.834;6.286;2023-04-21T06:26:21;28.43;;;20.50;;
15142;SDS011;7672;50.834;6.286;2023-04-21T06:28:48;28.13;;;19.63;;
15142;SDS011;7672;50.834;6.286;2023-04-21T06:31:15;25.90;;;20.03;;
15142;SDS011;7672;50.834;6.286;2023-04-21T06:33:42;30.40;;;19.77;;
15142;SDS011;7672;50.834;6.286;2023-04-21T06:36:09;27.60;;;20.63;;
15142;SDS011;7672;50.834;6.286;2023-04-21T06:38:36;28.17;;;20.23;;
15142;SDS011;7672;50.834;6.286;2023-04-21T06:41:05;29.40;;;20.93;;
15142;SDS011;7672;50.834;6.286;2023-04-21T06:43:32;25.13;;;18.87;;
15142;SDS011;7672;50.834;6.286;2023-04-21T06:45:58;24.20;;;18.93;;
15142;SDS011;7672;50.834;6.286;2023-04-21T06:48:25;25.50;;;19.57;;
15142;SDS011;7672;50.834;6.286;2023-04-21T06:50:53;25.77;;;18.67;;
15142;SDS011;7672;50.834;6.286;2023-04-21T06:53:20;26.60;;;19.53;;
15142;SDS011;7672;50.834;6.286;2023-04-21T06:55:47;24.40;;;18.20;;
15142;SDS011;7672;50.834;6.286;2023-04-21T06:58:14;26.03;;;18.50;;
15142;SDS011;7672;50.834;6.286;2023-04-21T07:00:41;25.27;;;18.53;;
15142;SDS011;7672;50.834;6.286;2023-04-21T07:03:07;27.40;;;18.53;;
15142;SDS011;7672;50.834;6.286;2023-04-21T07:05:34;22.23;;;17.47;;
15142;SDS011;7672;50.834;6.286;2023-04-21T07:08:01;22.87;;;16.93;;
15142;SDS011;7672;50.834;6.286;2023-04-21T07:10:28;21.33;;;16.93;;
15142;SDS011;7672;50.834;6.286;2023-04-21T07:12:55;19.03;;;15.93;;
15142;SDS011;7672;50.834;6.286;2023-04-21T07:15:21;22.40;;;15.27;;
15142;SDS011;7672;50.834;6.286;2023-04-21T07:17:48;18.27;;;14.77;;
15142;SDS011;7672;50.834;6.286;2023-04-21T07:20:15;16.63;;;14.30;;
15142;SDS011;7672;50.834;6.286;2023-04-21T07:22:44;17.17;;;14.23;;
15142;SDS011;7672;50.834;6.286;2023-04-21T07:25:10;17.33;;;14.87;;
15142;SDS011;7672;50.834;6.286;2023-04-21T07:27:37;16.07;;;14.30;;
15142;SDS011;7672;50.834;6.286;2023-04-21T07:30:04;18.17;;;13.27;;
15142;SDS011;7672;50.834;6.286;2023-04-21T07:32:32;17.27;;;14.10;;
15142;SDS011;7672;50.834;6.286;2023-04-21T07:35:00;18.23;;;14.90;;
15142;SDS011;7672;50.834;6.286;2023-04-21T07:37:27;17.63;;;14.37;;
15142;SDS011;7672;50.834;6.286;2023-04-21T07:39:54;14.90;;;13.40;;
15142;SDS011;7672;50.834;6.286;2023-04-21T07:42:21;16.50;;;14.43;;
15142;SDS011;7672;50.834;6.286;2023-04-21T07:44:48;16.03;;;14.53;;
15142;SDS011;7672;50.834;6.286;2023-04-21T07:47:15;20.47;;;15.83;;
15142;SDS011;7672;50.834;6.286;2023-04-21T07:49:41;16.90;;;15.30;;
15142;SDS011;7672;50.834;6.286;2023-04-21T07:52:08;17.67;;;16.07;;
15142;SDS011;7672;50.834;6.286;2023-04-21T07:54:35;17.83;;;15.97;;
15142;SDS011;7672;50.834;6.286;2023-04-21T07:57:02;17.47;;;15.97;;
15142;SDS011;7672;50.834;6.286;2023-04-21T07:59:29;16.17;;;14.67;;
15142;SDS011;7672;50.834;6.286;2023-04-21T08:01:56;17.27;;;15.77;;
15142;SDS011;7672;50.834;6.286;2023-04-21T08:04:22;16.83;;;15.23;;
15142;SDS011;7672;50.834;6.286;2023-04-21T08:06:50;16.13;;;14.70;;
15142;SDS011;7672;50.834;6.286;2023-04-21T08:09:17;16.03;;;14.50;;
15142;SDS011;7672;50.834;6.286;2023-04-21T08:11:44;14.43;;;13.23;;
15142;SDS011;7672;50.834;6.286;2023-04-21T08:14:12;14.67;;;13.33;;
15142;SDS011;7672;50.834;6.286;2023-04-21T08:16:39;14.83;;;13.53;;
15142;SDS011;7672;50.834;6.286;2023-04-21T08:19:08;14.63;;;13.27;;
15142;SDS011;7672;50.834;6.286;2023-04-21T08:21:35;13.47;;;12.27;;
15142;SDS011;7672;50.834;6.286;2023-04-21T08:24:02;13.00;;;11.90;;
15142;SDS011;7672;50.834;6.286;2023-04-21T08:26:30;13.63;;;12.53;;
15142;SDS011;7672;50.834;6.286;2023-04-21T08:28:59;12.70;;;11.60;;
15142;SDS011;7672;50.834;6.286;2023-04-21T08:31:29;14.33;;;13.13;;
15142;SDS011;7672;50.834;6.286;2023-04-21T08:33:56;12.50;;;11.40;;
15142;SDS011;7672;50.834;6.286;2023-04-21T08:36:27;14.03;;;12.83;;
15142;SDS011;7672;50.834;6.286;2023-04-21T08:38:56;13.33;;;12.23;;
15142;SDS011;7672;50.834;6.286;2023-04-21T08:41:23;14.20;;;13.00;;
15142;SDS011;7672;50.834;6.286;2023-04-21T08:43:51;13.67;;;12.50;;
15142;SDS011;7672;50.834;6.286;2023-04-21T08:46:18;13.93;;;12.73;;
15142;SDS011;7672;50.834;6.286;2023-04-21T08:48:46;12.80;;;11.70;;
15142;SDS011;7672;50.834;6.286;2023-04-21T08:51:15;13.37;;;12.17;;
15142;SDS011;7672;50.834;6.286;2023-04-21T08:53:48;12.97;;;11.87;;
15142;SDS011;7672;50.834;6.286;2023-04-21T08:56:15;12.27;;;11.20;;
15142;SDS011;7672;50.834;6.286;2023-04-21T08:58:42;13.00;;;12.00;;
15142;SDS011;7672;50.834;6.286;2023-04-21T09:01:09;13.53;;;12.20;;
15142;SDS011;7672;50.834;6.286;2023-04-21T09:03:37;13.35;;;12.25;;
15142;SDS011;7672;50.834;6.286;2023-04-21T09:06:05;10.82;;;9.93;;
15142;SDS011;7672;50.834;6.286;2023-04-21T09:08:41;12.95;;;11.75;;
15142;SDS011;7672;50.834;6.286;2023-04-21T09:11:17;11.50;;;10.50;;
15142;SDS011;7672;50.834;6.286;2023-04-21T09:13:44;11.52;;;10.63;;
15142;SDS011;7672;50.834;6.286;2023-04-21T09:16:18;11.40;;;10.40;;
15142;SDS011;7672;50.834;6.286;2023-04-21T09:18:48;12.88;;;11.68;;
15142;SDS011;7672;50.834;6.286;2023-04-21T09:21:17;14.00;;;12.90;;
15142;SDS011;7672;50.834;6.286;2023-04-21T09:23:49;12.35;;;11.38;;
15142;SDS011;7672;50.834;6.286;2023-04-21T09:26:18;13.10;;;12.00;;
15142;SDS011;7672;50.834;6.286;2023-04-21T09:28:51;12.30;;;11.32;;
15142;SDS011;7672;50.834;6.286;2023-04-21T09:31:19;13.13;;;11.95;;
15142;SDS011;7672;50.834;6.286;2023-04-21T09:33:55;13.82;;;12.65;;
15142;SDS011;7672;50.834;6.286;2023-04-21T09:36:27;12.98;;;11.68;;
15142;SDS011;7672;50.834;6.286;2023-04-21T09:38:59;12.05;;;11.10;;
15142;SDS011;7672;50.834;6.286;2023-04-21T09:41:31;12.45;;;11.45;;
15142;SDS011;7672;50.834;6.286;2023-04-21T09:43:58;12.30;;;11.20;;
15142;SDS011;7672;50.834;6.286;2023-04-21T09:46:27;12.65;;;11.65;;
15142;SDS011;7672;50.834;6.286;2023-04-21T09:48:59;11.65;;;10.68;;
15142;SDS011;7672;50.834;6.286;2023-04-21T09:51:28;12.05;;;11.10;;
15142;SDS011;7672;50.834;6.286;2023-04-21T09:54:17;12.27;;;11.27;;
15142;SDS011;7672;50.834;6.286;2023-04-21T09:56:55;12.55;;;11.27;;
15142;SDS011;7672;50.834;6.286;2023-04-21T09:59:36;12.23;;;11.32;;
15142;SDS011;7672;50.834;6.286;2023-04-21T10:02:10;12.40;;;11.38;;
15142;SDS011;7672;50.834;6.286;2023-04-21T10:04:39;12.38;;;11.48;;
15142;SDS011;7672;50.834;6.286;2023-04-21T10:07:09;12.57;;;11.55;;
15142;SDS011;7672;50.834;6.286;2023-04-21T10:09:39;12.52;;;11.52;;
15142;SDS011;7672;50.834;6.286;2023-04-21T10:12:19;13.48;;;12.35;;
15142;SDS011;7672;50.834;6.286;2023-04-21T10:14:51;12.70;;;11.70;;
15142;SDS011;7672;50.834;6.286;2023-04-21T10:17:23;12.35;;;11.35;;
15142;SDS011;7672;50.834;6.286;2023-04-21T10:19:52;12.68;;;11.68;;
15142;SDS011;7672;50.834;6.286;2023-04-21T10:22:33;12.90;;;11.80;;
15142;SDS011;7672;50.834;6.286;2023-04-21T10:25:01;13.10;;;12.05;;
15142;SDS011;7672;50.834;6.286;2023-04-21T10:27:34;13.43;;;12.32;;
15142;SDS011;7672;50.834;6.286;2023-04-21T10:30:18;12.30;;;11.27;;
15142;SDS011;7672;50.834;6.286;2023-04-21T10:33:01;12.85;;;11.75;;
15142;SDS011;7672;50.834;6.286;2023-04-21T10:38:35;12.20;;;11.15;;
15142;SDS011;7672;50.834;6.286;2023-04-21T10:41:26;11.63;;;10.52;;
15142;SDS011;7672;50.834;6.286;2023-04-21T10:46:35;11.98;;;10.98;;
15142;SDS011;7672;50.834;6.286;2023-04-21T10:49:11;12.90;;;11.90;;
15142;SDS011;7672;50.834;6.286;2023-04-21T10:57:14;11.63;;;10.73;;
15142;SDS011;7672;50.834;6.286;2023-04-21T10:59:44;11.15;;;10.25;;
15142;SDS011;7672;50.834;6.286;2023-04-21T11:02:13;11.27;;;10.38;;
15142;SDS011;7672;50.834;6.286;2023-04-21T11:04:42;10.80;;;9.80;;
15142;SDS011;7672;50.834;6.286;2023-04-21T11:07:15;9.90;;;9.02;;
15142;SDS011;7672;50.834;6.286;2023-04-21T11:09:45;12.25;;;11.20;;
15142;SDS011;7672;50.834;6.286;2023-04-21T11:12:14;9.73;;;8.93;;
15142;SDS011;7672;50.834;6.286;2023-04-21T11:14:44;10.65;;;9.75;;
15142;SDS011;7672;50.834;6.286;2023-04-21T11:17:15;10.10;;;9.30;;
15142;SDS011;7672;50.834;6.286;2023-04-21T11:19:45;10.13;;;9.32;;
15142;SDS011;7672;50.834;6.286;2023-04-21T11:22:20;9.43;;;8.63;;
15142;SDS011;7672;50.834;6.286;2023-04-21T11:24:50;10.20;;;9.30;;
15142;SDS011;7672;50.834;6.286;2023-04-21T11:27:24;9.55;;;8.63;;
15142;SDS011;7672;50.834;6.286;2023-04-21T11:29:53;8.82;;;8.13;;
15142;SDS011;7672;50.834;6.286;2023-04-21T11:32:20;8.82;;;8.13;;
15142;SDS011;7672;50.834;6.286;2023-04-21T11:34:46;8.98;;;8.18;;
15142;SDS011;7672;50.834;6.286;2023-04-21T11:37:15;8.45;;;7.75;;
15142;SDS011;7672;50.834;6.286;2023-04-21T11:39:55;8.10;;;7.38;;
15142;SDS011;7672;50.834;6.286;2023-04-21T11:42:26;7.47;;;6.77;;
15142;SDS011;7672;50.834;6.286;2023-04-21T11:44:54;7.65;;;6.95;;
15142;SDS011;7672;50.834;6.286;2023-04-21T11:47:22;7.93;;;6.88;;
15142;SDS011;7672;50.834;6.286;2023-04-21T11:49:53;7.13;;;6.43;;
15142;SDS011;7672;50.834;6.286;2023-04-21T11:54:54;7.25;;;6.65;;
15142;SDS011;7672;50.834;6.286;2023-04-21T11:57:26;7.33;;;6.73;;
15142;SDS011;7672;50.834;6.286;2023-04-21T11:59:58;7.10;;;6.40;;
15142;SDS011;7672;50.834;6.286;2023-04-21T12:02:28;6.90;;;6.27;;
15142;SDS011;7672;50.834;6.286;2023-04-21T12:07:37;7.13;;;6.43;;
15142;SDS011;7672;50.834;6.286;2023-04-21T12:10:08;6.23;;;5.63;;
15142;SDS011;7672;50.834;6.286;2023-04-21T12:12:41;6.90;;;6.30;;
15142;SDS011;7672;50.834;6.286;2023-04-21T12:15:10;5.97;;;5.47;;
15142;SDS011;7672;50.834;6.286;2023-04-21T12:17:43;5.50;;;5.03;;
15142;SDS011;7672;50.834;6.286;2023-04-21T12:20:16;4.77;;;4.37;;
15142;SDS011;7672;50.834;6.286;2023-04-21T12:22:46;6.50;;;4.37;;
15142;SDS011;7672;50.834;6.286;2023-04-21T12:25:14;5.90;;;4.80;;
15142;SDS011;7672;50.834;6.286;2023-04-21T12:27:51;6.90;;;5.13;;
15142;SDS011;7672;50.834;6.286;2023-04-21T12:30:22;6.20;;;5.70;;
15142;SDS011;7672;50.834;6.286;2023-04-21T12:32:49;8.07;;;5.47;;
15142;SDS011;7672;50.834;6.286;2023-04-21T12:35:17;6.83;;;6.17;;
15142;SDS011;7672;50.834;6.286;2023-04-21T12:37:44;6.80;;;6.20;;
15142;SDS011;7672;50.834;6.286;2023-04-21T12:40:11;7.07;;;5.97;;
15142;SDS011;7672;50.834;6.286;2023-04-21T12:42:38;6.73;;;6.13;;
15142;SDS011;7672;50.834;6.286;2023-04-21T12:45:05;7.07;;;6.30;;
15142;SDS011;7672;50.834;6.286;2023-04-21T12:47:33;6.20;;;5.70;;
15142;SDS011;7672;50.834;6.286;2023-04-21T12:50:02;7.67;;;6.87;;
15142;SDS011;7672;50.834;6.286;2023-04-21T12:52:29;6.07;;;5.57;;
15142;SDS011;7672;50.834;6.286;2023-04-21T12:54:56;6.00;;;5.50;;
15142;SDS011;7672;50.834;6.286;2023-04-21T12:57:23;9.67;;;5.50;;
15142;SDS011;7672;50.834;6.286;2023-04-21T12:59:49;6.10;;;5.60;;
15142;SDS011;7672;50.834;6.286;2023-04-21T13:02:16;6.20;;;5.60;;
15142;SDS011;7672;50.834;6.286;2023-04-21T13:04:43;5.87;;;5.37;;
15142;SDS011;7672;50.834;6.286;2023-04-21T13:07:10;6.60;;;4.73;;
15142;SDS011;7672;50.834;6.286;2023-04-21T13:09:37;5.87;;;4.80;;
15142;SDS011;7672;50.834;6.286;2023-04-21T13:12:04;5.17;;;4.60;;
15142;SDS011;7672;50.834;6.286;2023-04-21T13:14:31;4.70;;;4.30;;
15142;SDS011;7672;50.834;6.286;2023-04-21T13:16:58;4.53;;;4.10;;
15142;SDS011;7672;50.834;6.286;2023-04-21T13:19:25;4.47;;;4.07;;
15142;SDS011;7672;50.834;6.286;2023-04-21T13:21:51;5.67;;;4.33;;
15142;SDS011;7672;50.834;6.286;2023-04-21T13:24:19;3.40;;;3.10;;
15142;SDS011;7672;50.834;6.286;2023-04-21T13:26:47;3.63;;;3.33;;
15142;SDS011;7672;50.834;6.286;2023-04-21T13:29:14;4.80;;;4.40;;
15142;SDS011;7672;50.834;6.286;2023-04-21T13:31:41;5.77;;;4.53;;
15142;SDS011;7672;50.834;6.286;2023-04-21T13:34:08;4.70;;;4.30;;
15142;SDS011;7672;50.834;6.286;2023-04-21T13:36:35;4.13;;;3.47;;
15142;SDS011;7672;50.834;6.286;2023-04-21T13:39:01;4.60;;;4.20;;
15142;SDS011;7672;50.834;6.286;2023-04-21T13:41:29;4.97;;;4.57;;
15142;SDS011;7672;50.834;6.286;2023-04-21T13:43:56;5.43;;;4.60;;
15142;SDS011;7672;50.834;6.286;2023-04-21T13:46:23;4.67;;;4.10;;
15142;SDS011;7672;50.834;6.286;2023-04-21T13:48:50;4.57;;;4.17;;
15142;SDS011;7672;50.834;6.286;2023-04-21T13:51:17;4.53;;;3.87;;
15142;SDS011;7672;50.834;6.286;2023-04-21T13:53:45;4.10;;;3.80;;
15142;SDS011;7672;50.834;6.286;2023-04-21T13:56:13;4.00;;;3.60;;
15142;SDS011;7672;50.834;6.286;2023-04-21T13:58:40;4.43;;;4.00;;
15142;SDS011;7672;50.834;6.286;2023-04-21T14:01:07;4.97;;;4.30;;
15142;SDS011;7672;50.834;6.286;2023-04-21T14:03:34;6.10;;;4.40;;
15142;SDS011;7672;50.834;6.286;2023-04-21T14:06:01;4.83;;;4.43;;
15142;SDS011;7672;50.834;6.286;2023-04-21T14:08:28;4.90;;;4.40;;
15142;SDS011;7672;50.834;6.286;2023-04-21T14:10:56;4.03;;;3.70;;
15142;SDS011;7672;50.834;6.286;2023-04-21T14:13:23;3.93;;;3.50;;
15142;SDS011;7672;50.834;6.286;2023-04-21T14:16:04;4.53;;;4.13;;
15142;SDS011;7672;50.834;6.286;2023-04-21T14:18:32;5.93;;;3.90;;
15142;SDS011;7672;50.834;6.286;2023-04-21T14:20:59;3.70;;;3.40;;
15142;SDS011;7672;50.834;6.286;2023-04-21T14:23:26;5.17;;;3.77;;
15142;SDS011;7672;50.834;6.286;2023-04-21T14:25:53;4.70;;;3.80;;
15142;SDS011;7672;50.834;6.286;2023-04-21T14:28:20;4.17;;;3.73;;
15142;SDS011;7672;50.834;6.286;2023-04-21T14:30:47;4.63;;;4.23;;
15142;SDS011;7672;50.834;6.286;2023-04-21T14:33:14;6.63;;;4.63;;
15142;SDS011;7672;50.834;6.286;2023-04-21T14:35:41;5.13;;;4.60;;
15142;SDS011;7672;50.834;6.286;2023-04-21T14:38:08;4.23;;;3.83;;
15142;SDS011;7672;50.834;6.286;2023-04-21T14:40:34;5.43;;;4.40;;
15142;SDS011;7672;50.834;6.286;2023-04-21T14:43:01;4.33;;;3.90;;
15142;SDS011;7672;50.834;6.286;2023-04-21T14:45:28;4.90;;;4.40;;
15142;SDS011;7672;50.834;6.286;2023-04-21T14:47:55;4.40;;;4.00;;
15142;SDS011;7672;50.834;6.286;2023-04-21T14:50:22;4.93;;;4.43;;
15142;SDS011;7672;50.834;6.286;2023-04-21T14:52:48;4.27;;;3.87;;
15142;SDS011;7672;50.834;6.286;2023-04-21T14:55:15;4.57;;;4.17;;
15142;SDS011;7672;50.834;6.286;2023-04-21T14:57:42;5.00;;;4.43;;
15142;SDS011;7672;50.834;6.286;2023-04-21T15:00:09;4.43;;;4.03;;
15142;SDS011;7672;50.834;6.286;2023-04-21T15:02:37;4.87;;;4.20;;
15142;SDS011;7672;50.834;6.286;2023-04-21T15:05:06;4.27;;;3.90;;
15142;SDS011;7672;50.834;6.286;2023-04-21T15:07:34;4.60;;;4.20;;
15142;SDS011;7672;50.834;6.286;2023-04-21T15:10:01;4.13;;;3.80;;